Time;durP1;ratioP1;P1;durP2;ratioP2;P2;SDS_P1;SDS_P2;PMS_P1;PMS_P2;Temp;Humidity;BMP_temperature;BMP_pressure;BME280_temperature;BME280_humidity;BME280_pressure;Samples;Min_cycle;Max_cycle;Signal;HPM_P1;HPM_P2
2021/05/18 00:00:49;;;;;;;1.00;0.10;;;11.50;70.70;;;;;;5025568;28;20612;-64
2021/05/18 00:03:17;;;;;;;0.70;0.15;;;11.40;70.60;;;;;;5024748;28;20045;-64
2021/05/18 00:05:50;;;;;;;1.85;0.05;;;11.40;70.70;;;;;;5026737;28;20044;-64
2021/05/18 00:08:20;;;;;;;0.17;0.13;;;11.40;70.80;;;;;;5034640;28;20075;-64
2021/05/18 00:13:40;;;;;;;0.85;0.15;;;11.40;70.90;;;;;;5022834;28;20079;-64
2021/05/18 00:16:13;;;;;;;0.10;0.10;;;11.30;71.00;;;;;;5023837;28;21865;-65
2021/05/18 00:18:44;;;;;;;0.45;0.10;;;11.30;71.10;;;;;;5029248;28;20044;-64
2021/05/18 00:21:15;;;;;;;0.40;0.20;;;11.30;70.90;;;;;;5028771;28;20049;-64
2021/05/18 00:23:41;;;;;;;0.40;0.25;;;11.30;71.20;;;;;;5030001;28;20045;-64
2021/05/18 00:26:11;;;;;;;0.60;0.20;;;11.30;71.30;;;;;;5029869;28;20033;-64
2021/05/18 00:28:40;;;;;;;0.40;0.30;;;11.20;71.40;;;;;;5031984;28;20029;-64
2021/05/18 00:31:08;;;;;;;0.50;0.20;;;11.20;71.60;;;;;;5027543;28;20112;-64
2021/05/18 00:33:34;;;;;;;0.47;0.30;;;11.10;71.70;;;;;;5028996;28;20038;-65
2021/05/18 00:36:03;;;;;;;0.57;0.30;;;11.10;71.50;;;;;;5031480;28;20092;-64
2021/05/18 00:38:31;;;;;;;0.50;0.32;;;11.10;71.90;;;;;;5027882;28;20036;-64
2021/05/18 00:40:59;;;;;;;0.95;0.20;;;11.10;71.80;;;;;;5030109;28;20041;-64
2021/05/18 00:43:27;;;;;;;0.75;0.40;;;11.10;71.90;;;;;;5028930;28;20076;-64
2021/05/18 00:45:56;;;;;;;0.70;0.30;;;11.10;72.00;;;;;;5023282;28;20030;-68
2021/05/18 00:48:27;;;;;;;1.02;0.40;;;11.10;72.10;;;;;;5027807;28;20045;-65
2021/05/18 00:51:05;;;;;;;1.05;0.22;;;11.00;72.20;;;;;;5029328;28;20033;-64
2021/05/18 00:53:34;;;;;;;0.43;0.38;;;11.00;72.60;;;;;;5029189;28;20069;-64
2021/05/18 00:56:05;;;;;;;1.52;0.30;;;11.00;72.30;;;;;;5031652;28;20637;-64
2021/05/18 00:58:43;;;;;;;0.98;0.47;;;11.00;72.40;;;;;;5034205;28;20052;-64
2021/05/18 01:01:21;;;;;;;1.95;0.30;;;11.00;72.80;;;;;;5031498;28;20045;-64
2021/05/18 01:03:52;;;;;;;0.50;0.30;;;11.00;73.00;;;;;;5031704;28;20579;-64
2021/05/18 01:06:25;;;;;;;0.75;0.40;;;11.00;72.60;;;;;;5034324;28;20041;-64
2021/05/18 01:09:08;;;;;;;0.68;0.20;;;11.00;72.80;;;;;;5033848;28;20075;-64
2021/05/18 01:11:39;;;;;;;0.40;0.30;;;11.00;73.10;;;;;;5029727;28;20627;-63
2021/05/18 01:14:14;;;;;;;1.15;0.28;;;11.00;72.80;;;;;;5028621;28;20167;-64
2021/05/18 01:16:44;;;;;;;0.93;0.25;;;11.00;73.80;;;;;;5029073;28;20046;-64
2021/05/18 01:19:14;;;;;;;0.40;0.28;;;11.00;73.00;;;;;;5028272;28;20048;-64
2021/05/18 01:21:41;;;;;;;0.77;0.40;;;11.00;73.00;;;;;;5023167;28;21418;-65
2021/05/18 01:24:14;;;;;;;1.88;0.17;;;11.00;72.90;;;;;;5034670;28;20029;-63
2021/05/18 01:26:42;;;;;;;1.65;0.20;;;11.00;73.00;;;;;;5036491;28;20025;-64
2021/05/18 01:29:13;;;;;;;0.10;0.10;;;11.00;72.90;;;;;;5035390;28;20041;-64
2021/05/18 01:31:44;;;;;;;1.55;0.22;;;11.00;73.00;;;;;;5038225;28;20029;-64
2021/05/18 01:34:12;;;;;;;1.60;0.20;;;11.00;73.00;;;;;;5033984;28;20052;-64
2021/05/18 01:36:40;;;;;;;1.50;0.30;;;11.00;73.20;;;;;;5031519;28;20029;-64
2021/05/18 01:44:25;;;;;;;0.55;0.20;;;11.10;73.10;;;;;;5033696;28;20684;-64
2021/05/18 01:46:53;;;;;;;0.30;0.30;;;11.10;73.10;;;;;;5033799;28;20580;-64
2021/05/18 01:49:24;;;;;;;0.20;0.10;;;11.10;73.20;;;;;;5032650;28;20026;-64
2021/05/18 01:51:58;;;;;;;0.20;0.10;;;11.10;73.10;;;;;;5036384;28;20029;-63
2021/05/18 01:54:29;;;;;;;0.30;0.20;;;11.10;73.20;;;;;;5036836;28;20033;-65
2021/05/18 01:59:33;;;;;;;1.60;0.30;;;11.10;73.10;;;;;;5034218;28;20033;-65
2021/05/18 02:02:06;;;;;;;0.65;0.10;;;11.10;73.10;;;;;;5032950;28;20128;-64
2021/05/18 02:04:46;;;;;;;1.20;0.25;;;11.10;73.00;;;;;;5026549;28;20033;-64
2021/05/18 02:07:17;;;;;;;0.50;0.10;;;11.10;72.90;;;;;;5031420;28;20044;-64
2021/05/18 02:09:45;;;;;;;1.05;0.20;;;11.20;72.90;;;;;;5034220;28;20088;-64
2021/05/18 02:12:18;;;;;;;0.80;0.13;;;11.10;72.60;;;;;;5023629;28;20175;-64
2021/05/18 02:14:50;;;;;;;0.50;0.20;;;11.10;72.70;;;;;;5032096;28;20037;-64
2021/05/18 02:17:35;;;;;;;0.47;0.22;;;11.10;72.70;;;;;;5027205;28;20044;-65
2021/05/18 02:20:25;;;;;;;0.45;0.10;;;11.10;72.50;;;;;;5035524;28;20112;-64
2021/05/18 02:25:42;;;;;;;0.52;0.10;;;11.10;72.40;;;;;;5033172;28;20821;-64
2021/05/18 02:28:12;;;;;;;0.22;0.20;;;11.10;72.50;;;;;;5033897;28;20058;-66
2021/05/18 02:30:45;;;;;;;0.95;0.10;;;11.10;72.60;;;;;;5029517;28;20037;-64
2021/05/18 02:33:15;;;;;;;0.20;0.10;;;11.10;72.50;;;;;;5036569;28;20116;-64
2021/05/18 02:35:43;;;;;;;0.40;0.20;;;11.00;72.30;;;;;;5035379;28;20041;-65
2021/05/18 02:38:13;;;;;;;0.30;0.15;;;11.10;72.30;;;;;;5032667;28;20496;-64
2021/05/18 02:40:41;;;;;;;0.20;0.10;;;11.00;72.30;;;;;;5032511;28;20072;-64
2021/05/18 02:43:08;;;;;;;0.95;0.17;;;11.00;72.20;;;;;;5037192;28;20120;-65
2021/05/18 02:45:41;;;;;;;0.45;0.20;;;11.00;72.30;;;;;;5031222;28;20032;-64
2021/05/18 02:50:57;;;;;;;1.08;0.20;;;10.90;72.60;;;;;;5034998;28;20531;-64
2021/05/18 02:53:30;;;;;;;0.10;0.10;;;10.90;72.50;;;;;;5047130;28;20038;-64
2021/05/18 02:56:08;;;;;;;0.22;0.22;;;10.90;72.80;;;;;;5033098;28;20120;-64
2021/05/18 02:58:37;;;;;;;1.40;0.20;;;10.90;72.80;;;;;;5035596;28;20106;-64
2021/05/18 03:01:05;;;;;;;0.30;0.20;;;10.90;72.90;;;;;;5033824;28;20033;-64
2021/05/18 03:03:33;;;;;;;0.22;0.15;;;10.90;72.80;;;;;;5035262;28;20033;-64
2021/05/18 03:06:01;;;;;;;0.52;0.17;;;10.90;73.00;;;;;;5033057;28;20029;-65
2021/05/18 03:08:31;;;;;;;0.65;0.20;;;10.80;73.00;;;;;;5034108;28;20029;-64
2021/05/18 03:10:59;;;;;;;0.47;0.20;;;10.80;72.90;;;;;;5029454;28;20038;-65
2021/05/18 03:13:30;;;;;;;0.17;0.10;;;10.80;73.00;;;;;;5036036;28;20040;-65
2021/05/18 03:15:55;;;;;;;0.85;0.20;;;10.80;72.90;;;;;;5029421;28;20029;-65
2021/05/18 03:18:28;;;;;;;0.30;0.20;;;10.80;72.90;;;;;;5035772;28;20037;-66
2021/05/18 03:20:54;;;;;;;0.08;0.05;;;10.80;73.10;;;;;;5023638;28;20037;-64
2021/05/18 03:23:24;;;;;;;0.28;0.28;;;10.80;73.00;;;;;;5032812;28;20045;-65
2021/05/18 03:25:52;;;;;;;0.50;0.20;;;10.80;73.20;;;;;;5035471;28;20037;-64
2021/05/18 03:28:17;;;;;;;0.60;0.10;;;10.80;73.20;;;;;;5035824;28;20061;-64
2021/05/18 03:35:58;;;;;;;1.67;0.20;;;10.80;73.20;;;;;;5031366;28;20059;-64
2021/05/18 03:38:39;;;;;;;0.40;0.30;;;10.90;73.20;;;;;;5031728;28;20033;-65
2021/05/18 03:41:21;;;;;;;1.30;0.22;;;10.80;73.20;;;;;;5034117;28;20084;-64
2021/05/18 04:05:15;;;;;;;0.22;0.10;;;10.90;73.20;;;;;;5027896;28;20036;-65
2021/05/18 04:21:23;;;;;;;0.80;0.70;;;10.90;73.30;;;;;;5034001;28;20047;-65
2021/05/18 04:24:19;;;;;;;0.50;0.50;;;10.90;73.40;;;;;;5028288;28;20034;-65
2021/05/18 05:07:06;;;;;;;1.45;0.95;;;11.10;73.70;;;;;;5038957;28;20033;-65
2021/05/18 05:09:34;;;;;;;1.00;0.90;;;11.20;73.50;;;;;;5039599;28;20478;-65
2021/05/18 05:14:49;;;;;;;0.75;0.38;;;11.20;73.50;;;;;;5033895;28;20764;-65
2021/05/18 05:17:17;;;;;;;0.40;0.30;;;11.20;73.40;;;;;;5040329;28;20104;-65
2021/05/18 05:19:44;;;;;;;1.55;0.30;;;11.20;73.50;;;;;;5040225;28;20029;-66
2021/05/18 05:22:12;;;;;;;0.93;0.30;;;11.20;73.50;;;;;;5037420;28;20046;-65
2021/05/18 05:24:44;;;;;;;1.58;0.30;;;11.20;73.50;;;;;;5037719;28;20026;-63
2021/05/18 05:27:14;;;;;;;0.43;0.30;;;11.30;73.60;;;;;;5038934;28;20139;-65
2021/05/18 05:29:45;;;;;;;5.25;0.40;;;11.30;73.50;;;;;;5038059;28;20025;-65
2021/05/18 05:32:17;;;;;;;0.70;0.30;;;11.30;73.70;;;;;;5036869;28;20041;-66
2021/05/18 05:34:46;;;;;;;2.40;0.43;;;11.30;73.70;;;;;;5039216;28;20124;-66
2021/05/18 05:37:11;;;;;;;1.27;0.40;;;11.30;73.70;;;;;;5040764;28;20038;-66
2021/05/18 05:39:39;;;;;;;0.40;0.40;;;11.30;73.90;;;;;;5038440;28;20394;-65
2021/05/18 05:42:07;;;;;;;0.60;0.40;;;11.40;74.00;;;;;;5033020;28;20037;-66
2021/05/18 05:44:35;;;;;;;0.82;0.40;;;11.40;73.90;;;;;;5032732;28;20037;-65
2021/05/18 05:47:03;;;;;;;0.50;0.40;;;11.40;74.20;;;;;;5037631;28;20029;-65
2021/05/18 05:49:33;;;;;;;1.80;0.60;;;11.40;74.50;;;;;;5036546;28;20017;-66
2021/05/18 05:52:05;;;;;;;0.70;0.60;;;11.50;74.80;;;;;;5039083;28;20037;-66
2021/05/18 05:54:35;;;;;;;1.20;0.50;;;11.50;75.10;;;;;;5039691;28;20025;-67
2021/05/18 05:57:05;;;;;;;2.28;0.43;;;11.50;75.30;;;;;;5037626;28;20033;-65
2021/05/18 05:59:33;;;;;;;1.50;0.50;;;11.50;75.10;;;;;;5039755;28;20057;-65
2021/05/18 06:02:03;;;;;;;0.68;0.50;;;11.50;75.10;;;;;;5035197;28;20344;-66
2021/05/18 06:04:31;;;;;;;1.95;1.63;;;11.50;75.30;;;;;;5039154;28;20034;-64
2021/05/18 06:07:00;;;;;;;1.63;0.80;;;11.50;75.40;;;;;;5038655;28;20026;-65
2021/05/18 06:09:26;;;;;;;0.43;0.43;;;11.50;75.40;;;;;;5039687;28;20431;-65
2021/05/18 06:12:12;;;;;;;1.58;1.08;;;11.50;75.80;;;;;;5031757;28;20067;-65
2021/05/18 06:15:10;;;;;;;1.17;0.50;;;11.50;75.80;;;;;;5033850;28;20029;-65
2021/05/18 06:34:16;;;;;;;0.98;0.63;;;11.40;76.60;;;;;;5037798;28;20068;-64
2021/05/18 06:37:01;;;;;;;1.25;1.15;;;11.40;76.50;;;;;;5034908;28;20037;-64
2021/05/18 06:47:47;;;;;;;32.72;14.23;;;11.30;76.20;;;;;;5039715;28;20048;-64
2021/05/18 06:50:32;;;;;;;6.60;3.42;;;11.30;76.10;;;;;;5034936;28;20030;-65
2021/05/18 06:52:59;;;;;;;12.55;7.53;;;11.30;76.40;;;;;;5032797;28;20029;-65
2021/05/18 06:55:29;;;;;;;10.65;6.00;;;11.30;76.00;;;;;;5036712;28;20036;-64
2021/05/18 06:58:09;;;;;;;7.50;4.53;;;11.30;76.30;;;;;;5034468;28;20029;-64
2021/05/18 07:00:38;;;;;;;4.90;3.67;;;11.40;76.30;;;;;;5033439;28;20086;-64
2021/05/18 07:03:13;;;;;;;1.52;1.23;;;11.40;76.50;;;;;;5025636;28;20048;-64
2021/05/18 07:05:53;;;;;;;1.45;0.40;;;11.40;76.70;;;;;;5036001;28;20106;-65
2021/05/18 07:10:47;;;;;;;4.82;3.67;;;11.50;76.70;;;;;;5033452;28;20042;-64
2021/05/18 07:13:19;;;;;;;4.25;2.72;;;11.60;77.00;;;;;;5034394;28;20165;-65
2021/05/18 07:15:45;;;;;;;1.73;1.63;;;11.60;77.10;;;;;;5035783;28;20041;-65
2021/05/18 07:18:11;;;;;;;6.85;4.80;;;11.60;77.10;;;;;;5035430;28;20030;-65
2021/05/18 07:20:39;;;;;;;2.13;1.92;;;11.70;77.30;;;;;;5037060;28;20500;-65
2021/05/18 07:23:10;;;;;;;1.00;0.80;;;11.70;77.20;;;;;;5035570;28;20120;-66
2021/05/18 07:25:43;;;;;;;0.47;0.32;;;11.80;77.40;;;;;;5033456;28;20083;-65
2021/05/18 07:28:11;;;;;;;0.68;0.47;;;11.80;78.00;;;;;;5037710;28;20401;-65
2021/05/18 07:30:39;;;;;;;1.52;1.42;;;11.90;77.90;;;;;;5033783;28;22371;-65
2021/05/18 07:33:07;;;;;;;0.68;0.32;;;12.00;78.00;;;;;;5035972;28;20523;-65
2021/05/18 07:35:36;;;;;;;0.70;0.70;;;12.00;77.70;;;;;;5036847;28;20496;-65
2021/05/18 07:38:02;;;;;;;0.68;0.68;;;12.10;77.40;;;;;;5035060;28;20636;-65
2021/05/18 07:40:32;;;;;;;0.88;0.60;;;12.10;77.30;;;;;;5036783;28;20103;-65
2021/05/18 07:42:59;;;;;;;0.40;0.40;;;12.10;77.50;;;;;;5037133;28;20424;-66
2021/05/18 07:45:28;;;;;;;1.00;0.68;;;12.20;77.10;;;;;;5033211;28;20037;-65
2021/05/18 07:48:02;;;;;;;0.70;0.70;;;12.20;76.80;;;;;;5039020;28;20448;-65
2021/05/18 08:06:57;;;;;;;0.80;0.80;;;12.20;76.10;;;;;;5036290;28;20036;-65
2021/05/18 08:09:24;;;;;;;2.17;0.90;;;12.20;76.10;;;;;;5034507;28;20425;-65
2021/05/18 08:11:54;;;;;;;0.70;0.43;;;12.20;76.40;;;;;;5034948;28;20033;-64
2021/05/18 08:14:24;;;;;;;0.60;0.30;;;12.20;76.30;;;;;;5037202;28;20030;-65
2021/05/18 10:35:02;;;;;;;0.32;0.17;;;14.50;69.10;;;;;;4963578;28;20086;-65
2021/05/18 10:40:26;;;;;;;0.75;0.20;;;14.70;68.00;;;;;;5041323;28;20064;-66
2021/05/18 10:43:16;;;;;;;1.17;0.30;;;14.80;67.10;;;;;;5037047;28;20076;-66
2021/05/18 10:46:02;;;;;;;0.70;0.30;;;14.90;65.30;;;;;;5036036;28;20033;-66
2021/05/18 10:48:36;;;;;;;2.42;0.38;;;14.90;66.30;;;;;;5035724;28;20029;-65
2021/05/18 10:51:23;;;;;;;2.70;0.40;;;14.90;66.30;;;;;;5035878;28;20034;-66
2021/05/18 10:54:16;;;;;;;1.27;0.22;;;14.90;65.50;;;;;;5037776;28;20036;-66
2021/05/18 10:56:58;;;;;;;1.15;0.43;;;14.90;65.10;;;;;;5040872;28;20033;-66
2021/05/18 10:59:28;;;;;;;1.20;0.40;;;14.90;66.70;;;;;;5035740;28;20172;-66
2021/05/18 11:02:16;;;;;;;2.15;0.30;;;14.80;67.10;;;;;;5044351;28;20083;-66
2021/05/18 11:05:13;;;;;;;0.40;0.30;;;14.80;67.40;;;;;;5039031;28;20458;-66
2021/05/18 11:07:46;;;;;;;0.88;0.20;;;14.80;66.50;;;;;;5035454;28;20113;-65
2021/05/18 11:10:15;;;;;;;2.30;0.30;;;14.70;66.20;;;;;;5037340;28;20056;-66
2021/05/18 11:12:45;;;;;;;3.92;0.20;;;14.70;66.40;;;;;;5036680;28;20512;-66
2021/05/18 11:15:24;;;;;;;2.47;0.55;;;14.60;66.90;;;;;;5035048;28;20041;-65
2021/05/18 11:17:59;;;;;;;1.25;0.30;;;14.60;67.80;;;;;;5040453;28;20033;-66
2021/05/18 11:23:30;;;;;;;3.30;0.40;;;14.60;69.50;;;;;;5036034;28;20048;-66
2021/05/18 11:26:06;;;;;;;1.05;0.40;;;14.60;69.60;;;;;;5040508;28;20030;-66
2021/05/18 11:28:40;;;;;;;2.30;0.28;;;14.70;69.80;;;;;;5034969;28;20045;-65
2021/05/18 11:31:12;;;;;;;1.35;0.32;;;14.70;69.80;;;;;;5039445;28;20060;-66
2021/05/18 11:33:41;;;;;;;1.08;0.30;;;14.70;69.00;;;;;;5038394;28;20462;-65
2021/05/18 11:36:16;;;;;;;0.75;0.30;;;14.70;68.50;;;;;;5038309;28;20037;-65
2021/05/18 11:39:11;;;;;;;1.10;0.40;;;14.70;68.40;;;;;;5038306;28;20045;-64
2021/05/18 11:41:45;;;;;;;1.10;0.17;;;14.60;69.30;;;;;;5036429;28;20041;-65
2021/05/18 11:44:18;;;;;;;2.72;0.30;;;14.60;68.30;;;;;;5037630;28;20061;-65
2021/05/18 11:46:58;;;;;;;0.50;0.20;;;14.60;68.00;;;;;;5035817;28;20056;-66
2021/05/18 11:49:28;;;;;;;1.02;0.20;;;14.60;67.90;;;;;;5037018;28;20026;-64
2021/05/18 11:51:59;;;;;;;1.15;0.22;;;14.50;67.60;;;;;;5037840;28;20034;-66
2021/05/18 11:54:30;;;;;;;2.60;0.30;;;14.50;67.60;;;;;;5036326;28;20162;-66
2021/05/18 11:56:59;;;;;;;1.02;0.20;;;14.40;67.60;;;;;;5036492;28;20033;-65
2021/05/18 11:59:27;;;;;;;1.63;0.10;;;14.20;64.60;;;;;;5037132;28;20119;-65
2021/05/18 12:02:05;;;;;;;0.10;0.10;;;14.00;65.00;;;;;;5030954;28;20029;-65
2021/05/18 12:04:39;;;;;;;0.65;0.20;;;13.70;65.00;;;;;;5034501;28;20041;-64
2021/05/18 12:07:16;;;;;;;4.13;0.20;;;13.30;65.90;;;;;;5036817;28;20030;-64
2021/05/18 12:09:48;;;;;;;0.32;0.20;;;13.00;66.80;;;;;;5034830;28;20026;-65
2021/05/18 12:12:20;;;;;;;0.63;0.20;;;12.70;67.80;;;;;;5031754;28;20083;-63
2021/05/18 12:14:52;;;;;;;0.55;0.20;;;12.50;69.30;;;;;;5032487;28;20030;-64
2021/05/18 12:17:31;;;;;;;2.05;0.28;;;12.40;70.50;;;;;;5033409;28;20072;-63
2021/05/18 12:20:00;;;;;;;0.30;0.30;;;12.30;71.60;;;;;;5036632;28;20026;-64
2021/05/18 12:22:26;;;;;;;1.13;0.20;;;12.20;71.70;;;;;;5041266;28;20041;-62
2021/05/18 12:24:55;;;;;;;1.48;0.20;;;12.20;72.30;;;;;;5033567;28;20520;-64
2021/05/18 12:27:26;;;;;;;0.50;0.20;;;12.20;72.50;;;;;;5044408;28;20079;-64
2021/05/18 12:29:57;;;;;;;1.63;0.30;;;12.30;72.60;;;;;;5038148;28;20037;-64
2021/05/18 12:32:35;;;;;;;0.85;0.50;;;12.30;73.20;;;;;;5031359;28;20493;-64
2021/05/18 12:35:05;;;;;;;1.02;0.35;;;12.40;73.50;;;;;;5035298;28;20086;-65
2021/05/18 12:37:47;;;;;;;3.60;0.82;;;12.40;73.20;;;;;;5034298;28;20061;-65
2021/05/18 12:40:18;;;;;;;0.80;0.60;;;12.50;73.70;;;;;;5032633;28;20068;-64
2021/05/18 12:42:49;;;;;;;1.92;0.30;;;12.50;73.30;;;;;;5033297;28;20042;-65
2021/05/18 12:45:20;;;;;;;1.98;0.32;;;12.50;73.30;;;;;;5037619;28;20025;-65
2021/05/18 12:48:01;;;;;;;1.35;0.20;;;12.50;73.50;;;;;;5035360;28;20512;-64
2021/05/18 12:50:44;;;;;;;1.35;0.43;;;12.50;75.40;;;;;;5033787;28;20037;-64
2021/05/18 12:53:29;;;;;;;0.43;0.30;;;12.60;74.80;;;;;;5034318;28;20117;-65
2021/05/18 12:56:02;;;;;;;0.08;0.03;;;12.60;75.70;;;;;;5035791;28;20041;-64
2021/05/18 12:58:31;;;;;;;0.10;0.10;;;12.70;73.70;;;;;;5035759;28;20033;-65
2021/05/18 13:01:17;;;;;;;1.55;0.20;;;12.60;72.20;;;;;;5031812;28;20083;-65
2021/05/18 13:03:45;;;;;;;1.10;0.08;;;12.60;71.40;;;;;;5035250;28;20037;-64
2021/05/18 13:06:14;;;;;;;0.70;0.17;;;12.50;70.60;;;;;;5033057;28;20040;-65
2021/05/18 13:08:41;;;;;;;0.60;0.10;;;12.40;70.20;;;;;;5032587;28;20030;-64
2021/05/18 13:13:59;;;;;;;1.50;1.00;;;12.00;69.90;;;;;;5030647;28;20036;-64
2021/05/18 13:16:30;;;;;;;0.73;0.17;;;11.90;70.50;;;;;;5036177;28;20029;-64
2021/05/18 13:18:59;;;;;;;0.38;0.10;;;11.80;70.60;;;;;;5035699;28;20078;-65
2021/05/18 13:21:37;;;;;;;2.63;1.33;;;11.70;70.40;;;;;;5036127;28;20044;-60
2021/05/18 13:26:40;;;;;;;0.20;0.20;;;11.50;70.60;;;;;;5041662;28;20036;-63
2021/05/18 13:29:16;;;;;;;1.40;0.28;;;11.50;71.40;;;;;;5039724;28;20439;-64
2021/05/18 13:31:46;;;;;;;0.20;0.20;;;11.50;72.10;;;;;;5040671;28;20124;-62
2021/05/18 13:34:19;;;;;;;1.65;0.20;;;11.60;72.60;;;;;;5037390;28;20385;-63
2021/05/18 13:36:48;;;;;;;0.20;0.10;;;11.70;72.90;;;;;;5037071;28;20037;-63
2021/05/18 13:39:25;;;;;;;0.85;0.10;;;11.80;73.20;;;;;;5036815;28;20033;-65
2021/05/18 13:41:50;;;;;;;0.20;0.10;;;12.00;73.20;;;;;;5046795;28;20088;-64
2021/05/18 13:44:22;;;;;;;0.50;0.10;;;12.10;73.50;;;;;;5037300;28;20044;-64
2021/05/18 13:46:48;;;;;;;0.43;0.15;;;12.30;72.30;;;;;;5039959;28;20037;-64
2021/05/18 13:49:18;;;;;;;0.52;0.10;;;12.50;73.00;;;;;;5038600;28;20527;-65
2021/05/18 13:51:47;;;;;;;1.40;0.10;;;12.80;72.90;;;;;;5037905;28;20575;-65
2021/05/18 13:54:15;;;;;;;0.32;0.10;;;12.90;73.00;;;;;;5047057;28;20042;-65
2021/05/18 13:56:44;;;;;;;0.20;0.10;;;13.10;72.50;;;;;;5038890;28;20105;-65
2021/05/18 13:59:15;;;;;;;0.30;0.10;;;13.30;72.30;;;;;;5038091;28;20113;-66
2021/05/18 14:01:40;;;;;;;0.68;0.20;;;13.40;71.40;;;;;;5037311;28;20056;-65
2021/05/18 14:04:06;;;;;;;0.63;0.10;;;13.50;71.30;;;;;;5038485;28;20033;-65
2021/05/18 14:06:37;;;;;;;0.45;0.10;;;13.70;70.50;;;;;;5039196;28;20029;-64
2021/05/18 14:09:07;;;;;;;0.73;0.35;;;13.80;70.20;;;;;;5040232;28;20033;-64
2021/05/18 14:11:37;;;;;;;1.17;0.20;;;13.80;69.30;;;;;;5035344;28;20403;-65
2021/05/18 14:14:03;;;;;;;0.75;0.20;;;13.80;65.40;;;;;;5036079;28;20033;-65
2021/05/18 14:16:36;;;;;;;1.55;0.30;;;13.80;64.40;;;;;;5035387;28;20037;-65
2021/05/18 14:19:02;;;;;;;2.65;0.30;;;13.60;64.50;;;;;;5040343;28;20548;-65
2021/05/18 14:21:29;;;;;;;0.30;0.10;;;13.40;65.40;;;;;;5038801;28;20037;-65
2021/05/18 14:24:13;;;;;;;0.90;0.10;;;13.30;67.00;;;;;;5041502;28;20048;-65
2021/05/18 14:26:42;;;;;;;0.28;0.13;;;13.10;66.40;;;;;;5036856;28;20083;-65
2021/05/18 14:29:08;;;;;;;0.38;0.20;;;12.90;67.20;;;;;;5039377;28;20034;-65
2021/05/18 14:31:36;;;;;;;0.47;0.20;;;12.80;67.60;;;;;;5031232;28;20063;-66
2021/05/18 14:34:06;;;;;;;0.65;0.40;;;12.70;68.20;;;;;;5028539;28;20092;-66
2021/05/18 14:36:32;;;;;;;0.50;0.40;;;12.60;68.50;;;;;;5032428;28;20073;-65
2021/05/18 14:39:04;;;;;;;0.40;0.40;;;12.50;68.50;;;;;;5034044;28;20443;-65
2021/05/18 14:44:28;;;;;;;0.70;0.40;;;12.20;69.70;;;;;;5016772;28;25515;-66
2021/05/18 14:47:11;;;;;;;1.17;0.68;;;12.10;70.20;;;;;;5017786;28;20650;-64
2021/05/18 14:55:20;;;;;;;1.48;0.57;;;11.80;71.30;;;;;;5018410;28;20139;-64
2021/05/18 14:57:49;;;;;;;0.65;0.40;;;11.80;71.90;;;;;;5014324;28;20045;-64
2021/05/18 15:00:17;;;;;;;2.45;0.75;;;11.80;72.00;;;;;;5018260;28;20044;-66
2021/05/18 15:02:47;;;;;;;1.17;0.60;;;11.70;72.40;;;;;;5020628;28;20120;-64
2021/05/18 15:05:16;;;;;;;0.85;0.57;;;11.80;73.20;;;;;;5022371;28;20554;-64
2021/05/18 15:07:49;;;;;;;1.10;0.80;;;11.80;73.30;;;;;;5024128;28;20037;-64
2021/05/18 15:10:15;;;;;;;2.20;1.10;;;11.90;73.00;;;;;;5021346;28;20029;-64
2021/05/18 15:12:45;;;;;;;0.77;0.40;;;11.90;73.70;;;;;;5023833;28;20726;-65
2021/05/18 15:15:16;;;;;;;0.35;0.30;;;12.10;74.20;;;;;;5037349;28;20045;-65
2021/05/18 15:17:46;;;;;;;0.55;0.35;;;12.20;73.50;;;;;;5034824;28;20029;-65
2021/05/18 15:20:16;;;;;;;0.75;0.40;;;12.30;72.40;;;;;;5038418;28;20037;-65
2021/05/18 15:22:42;;;;;;;1.48;0.30;;;12.40;71.30;;;;;;5038272;28;20294;-65
2021/05/18 15:25:15;;;;;;;0.52;0.20;;;12.50;71.10;;;;;;5033589;28;20551;-65
2021/05/18 15:27:40;;;;;;;0.40;0.30;;;12.60;71.20;;;;;;5038124;28;20036;-65
2021/05/18 15:30:12;;;;;;;0.82;0.40;;;12.70;71.50;;;;;;5037316;28;20075;-64
2021/05/18 15:32:38;;;;;;;1.05;0.50;;;12.80;71.80;;;;;;5052919;28;20049;-64
2021/05/18 15:35:06;;;;;;;0.80;0.68;;;12.90;72.50;;;;;;5025389;28;20033;-64
2021/05/18 15:37:35;;;;;;;3.05;2.75;;;13.00;71.20;;;;;;5023515;28;20063;-64
2021/05/18 15:40:03;;;;;;;1.98;0.38;;;13.20;71.20;;;;;;5023144;28;20132;-65
2021/05/18 15:42:31;;;;;;;1.83;1.73;;;13.30;70.40;;;;;;5018543;28;20891;-64
2021/05/18 15:45:01;;;;;;;3.10;2.78;;;13.40;70.00;;;;;;5019295;28;20425;-64
2021/05/18 15:47:28;;;;;;;0.88;0.60;;;13.60;70.00;;;;;;5019431;28;20520;-64
2021/05/18 15:49:56;;;;;;;0.77;0.30;;;13.60;69.90;;;;;;5021539;28;20364;-64
2021/05/18 15:52:22;;;;;;;1.05;0.20;;;13.70;69.20;;;;;;5019624;28;20152;-65
2021/05/18 15:54:49;;;;;;;0.57;0.30;;;13.80;68.30;;;;;;5018890;28;20090;-64
2021/05/18 15:57:16;;;;;;;0.90;0.13;;;13.90;68.50;;;;;;5020913;28;20041;-64
2021/05/18 15:59:48;;;;;;;0.40;0.32;;;14.00;68.30;;;;;;5021083;28;20033;-64
2021/05/18 16:02:19;;;;;;;2.60;1.75;;;14.10;68.40;;;;;;5018065;28;20463;-65
2021/05/18 16:04:49;;;;;;;1.45;0.50;;;14.20;68.30;;;;;;5026833;28;20041;-64
2021/05/18 16:07:18;;;;;;;1.80;0.98;;;14.30;67.70;;;;;;5022044;28;20405;-65
2021/05/18 16:09:46;;;;;;;3.33;2.08;;;14.40;67.10;;;;;;5022343;28;20637;-63
2021/05/18 16:12:14;;;;;;;4.15;0.55;;;14.50;66.90;;;;;;5016138;28;20236;-65
2021/05/18 16:14:40;;;;;;;0.35;0.13;;;14.70;66.20;;;;;;5021290;28;20697;-65
2021/05/18 16:17:08;;;;;;;0.30;0.20;;;14.80;65.70;;;;;;5019593;28;20489;-65
2021/05/18 16:19:41;;;;;;;1.00;0.20;;;15.00;65.30;;;;;;5025707;28;20025;-65
2021/05/18 16:22:09;;;;;;;0.80;0.30;;;15.10;64.40;;;;;;5017841;28;20037;-64
2021/05/18 16:24:37;;;;;;;1.10;0.25;;;15.20;63.50;;;;;;5017880;28;20167;-64
2021/05/18 16:27:11;;;;;;;4.72;0.50;;;15.30;62.60;;;;;;5018035;28;20037;-64
2021/05/18 16:29:39;;;;;;;2.30;1.45;;;15.30;62.90;;;;;;5018615;28;20029;-64
2021/05/18 16:32:07;;;;;;;1.77;0.40;;;15.30;63.30;;;;;;5017872;28;20069;-65
2021/05/18 16:34:35;;;;;;;0.20;0.10;;;15.30;63.30;;;;;;5025535;28;20471;-64
2021/05/18 16:37:07;;;;;;;0.77;0.30;;;15.30;63.40;;;;;;5032318;28;20540;-65
2021/05/18 16:39:33;;;;;;;1.20;0.55;;;15.30;63.20;;;;;;5022294;28;20251;-65
2021/05/18 16:42:01;;;;;;;1.15;0.40;;;15.30;63.80;;;;;;5019093;28;20555;-66
2021/05/18 16:44:29;;;;;;;0.68;0.30;;;15.30;63.60;;;;;;5023689;28;20037;-65
2021/05/18 16:46:57;;;;;;;0.77;0.50;;;15.30;63.40;;;;;;5023622;28;20041;-65
2021/05/18 16:49:22;;;;;;;1.60;0.30;;;15.30;63.60;;;;;;5024030;28;20026;-65
2021/05/18 16:51:50;;;;;;;0.47;0.30;;;15.30;63.90;;;;;;5022288;28;20028;-65
2021/05/18 16:54:21;;;;;;;0.45;0.30;;;15.30;63.30;;;;;;5033310;28;20037;-65
2021/05/18 16:56:49;;;;;;;0.70;0.40;;;15.20;62.90;;;;;;5028894;28;20069;-65
2021/05/18 16:59:17;;;;;;;0.68;0.35;;;15.20;62.90;;;;;;5034436;28;20037;-65
2021/05/18 17:01:47;;;;;;;0.98;0.50;;;15.20;62.60;;;;;;5031147;28;20084;-65
2021/05/18 17:04:16;;;;;;;1.17;0.47;;;15.20;62.60;;;;;;5036548;28;20049;-65
2021/05/18 17:06:42;;;;;;;1.15;0.55;;;15.20;63.00;;;;;;5037691;28;20045;-66
2021/05/18 17:09:12;;;;;;;0.82;0.60;;;15.20;63.80;;;;;;5037171;28;20427;-66
2021/05/18 17:11:41;;;;;;;1.92;0.40;;;15.30;63.90;;;;;;5030689;28;20036;-65
2021/05/18 17:14:10;;;;;;;0.68;0.30;;;15.40;64.50;;;;;;5037523;28;20079;-65
2021/05/18 17:16:38;;;;;;;1.20;0.30;;;15.60;64.50;;;;;;5035634;28;20053;-66
2021/05/18 17:19:09;;;;;;;0.65;0.28;;;15.70;64.00;;;;;;5042277;28;20037;-65
2021/05/18 17:21:37;;;;;;;1.05;0.40;;;15.80;63.30;;;;;;5035361;28;20038;-66
2021/05/18 17:24:09;;;;;;;0.63;0.30;;;15.80;63.10;;;;;;5037291;28;20048;-65
2021/05/18 17:26:42;;;;;;;1.80;0.60;;;15.80;62.40;;;;;;5037046;28;20026;-66
2021/05/18 17:29:12;;;;;;;0.77;0.52;;;15.80;61.70;;;;;;5037399;28;20041;-66
2021/05/18 17:31:43;;;;;;;1.30;0.65;;;15.70;62.90;;;;;;5036905;28;20037;-66
2021/05/18 17:34:12;;;;;;;3.63;1.48;;;15.60;62.50;;;;;;5037834;28;20037;-66
2021/05/18 17:36:44;;;;;;;3.05;1.08;;;15.50;62.80;;;;;;5033759;28;20037;-65
2021/05/18 17:39:10;;;;;;;1.55;0.60;;;15.40;62.60;;;;;;5028955;28;20038;-64
2021/05/18 17:41:38;;;;;;;0.50;0.20;;;15.30;62.70;;;;;;5029293;28;20033;-63
2021/05/18 17:44:09;;;;;;;0.57;0.30;;;15.20;62.40;;;;;;5033736;28;20033;-62
2021/05/18 17:46:37;;;;;;;0.77;0.47;;;15.10;62.70;;;;;;5033017;28;20037;-64
2021/05/18 17:49:08;;;;;;;2.65;0.70;;;14.90;62.30;;;;;;5033176;28;20108;-65
2021/05/18 17:51:38;;;;;;;0.47;0.40;;;14.70;62.20;;;;;;5031980;28;20041;-64
2021/05/18 17:54:09;;;;;;;1.20;1.10;;;14.60;62.40;;;;;;5033572;28;20041;-64
2021/05/18 17:56:38;;;;;;;2.40;1.92;;;14.40;62.30;;;;;;5035757;28;20029;-64
2021/05/18 17:59:10;;;;;;;1.92;1.42;;;14.30;63.20;;;;;;5034589;28;20064;-64
2021/05/18 18:01:41;;;;;;;1.23;0.80;;;14.20;64.40;;;;;;5033544;28;20037;-64
2021/05/18 18:04:11;;;;;;;1.10;0.70;;;14.10;64.90;;;;;;5034497;28;21423;-64
2021/05/18 18:06:42;;;;;;;1.10;0.63;;;14.00;65.60;;;;;;5038489;28;20421;-64